Latest Weather Observations for Dwellingup

IDW60801

Issued at 1:03 am WST Wednesday 17 January 2018 (issued every 30 minutes, with the page automatically refreshed every 10 minutes)

About weather observations | Map of weather stations | Latest weather observations for WA | Other Formats
Station Details ID: 009538 Name: DWELLINGUP Lat: -32.71 Lon: 116.06 Height: 267.0 m
Data from the previous 72 hours. | See also: Recent months at Dwellingup
Date/Time
WST
Temp
°C
App
Temp
°C
Dew
Point
°C
Rel
Hum
%
Delta-T
°C
Wind Press
QNH
hPa
Press
MSL
hPa
Rain since
9am
mm
Dir  Spd
km/h
Gust
km/h
Spd
kts
Gust
kts
17/01:00am 20.5 22.0 19.0 91 1.0 N 9 11 5 6 1005.7 1004.5 0.0
17/12:30am 20.6 22.6 19.1 91 1.0 NNE 7 9 4 5 1005.7 1004.5 0.0
17/12:00am 20.5 22.3 18.8 90 1.1 NNE 7 11 4 6 1005.9 1004.7 0.0
 
Date/Time
WST
Temp
°C
App
Temp
°C
Dew
Point
°C
Rel
Hum
%
Delta-T
°C
Wind Press
QNH
hPa
Press
MSL
hPa
Rain since
9am
mm
Dir  Spd
km/h
Gust
km/h
Spd
kts
Gust
kts
16/11:30pm 20.7 22.2 19.0 90 1.1 NNE 9 11 5 6 1006.3 1005.1 0.0
16/11:00pm 21.0 21.9 19.3 90 1.1 NW 13 19 7 10 1006.4 1005.2 0.0
16/10:30pm 20.8 21.6 19.1 90 1.1 N 13 17 7 9 1006.6 1005.4 0.0
16/10:00pm 21.4 23.2 19.5 89 1.2 NNE 9 11 5 6 1006.4 1005.2 0.0
16/09:30pm 21.3 22.6 19.4 89 1.2 NNE 11 13 6 7 1006.7 1005.5 0.0
16/09:00pm 21.8 23.3 19.7 88 1.4 NNE 11 15 6 8 1006.5 1005.3 0.0
16/08:30pm 21.9 23.3 19.5 86 1.5 NNE 11 15 6 8 1006.6 1005.4 0.0
16/08:00pm 22.3 24.6 19.8 86 1.6 ENE 7 11 4 6 1006.6 1005.4 0.0
16/07:30pm 22.7 26.3 19.7 83 1.9 CALM 0 0 0 0 1006.1 1004.9 0.0
16/07:00pm 23.4 26.0 19.3 78 2.7 NNW 4 7 2 4 1006.0 1004.8 0.0
16/06:30pm 23.7 26.1 19.6 78 2.7 NNW 6 9 3 5 1006.0 1004.8 0.0
16/06:00pm 24.0 26.3 19.5 76 2.9 NW 6 11 3 6 1005.8 1004.6 0.0
16/05:30pm 24.5 26.2 19.3 73 3.4 WNW 9 17 5 9 1005.6 1004.4 0.0
16/05:00pm 24.6 26.2 19.9 75 3.1 WNW 11 19 6 10 1005.5 1004.3 0.0
16/04:30pm 24.8 25.5 19.6 73 3.4 WNW 15 28 8 15 1005.4 1004.2 0.0
16/04:00pm 25.9 26.3 19.8 69 4.0 WNW 17 30 9 16 1005.2 1004.0 0.0
16/03:30pm 26.4 26.9 20.0 68 4.2 WNW 17 32 9 17 1005.6 1004.4 0.0
16/03:00pm 26.1 26.1 19.7 68 4.2 W 19 33 10 18 1005.8 1004.6 0.0
16/02:30pm 26.4 25.8 19.8 67 4.3 WNW 22 35 12 19 1005.6 1004.4 0.0
16/02:00pm 28.3 32.2 20.3 62 5.3 CALM 0 0 0 0 1005.4 1004.2 0.0
16/01:30pm 28.0 30.4 20.0 61 5.3 ENE 7 15 4 8 1005.8 1004.6 0.0
16/01:00pm 26.7 27.3 18.6 61 5.2 E 13 20 7 11 1006.1 1004.9 0.0
16/12:30pm 26.0 25.9 17.9 61 5.2 ENE 15 24 8 13 1006.6 1005.4 0.0
16/12:00pm 25.4 25.3 18.8 67 4.3 ENE 17 30 9 16 1007.1 1006.0 0.0
16/11:30am 25.4 26.0 18.6 66 4.4 ESE 13 20 7 11 1007.4 1006.3 0.0
16/11:00am 23.2 23.6 18.9 77 2.8 E 15 30 8 16 1007.9 1006.7 0.0
16/10:30am 21.2 21.2 18.2 83 1.9 ESE 15 26 8 14 1008.3 1007.1 0.0
16/10:00am 19.3 18.9 18.0 92 0.8 ESE 17 28 9 15 1008.5 1007.3 0.0
16/09:30am 18.3 17.5 17.0 92 0.8 E 17 28 9 15 1008.8 1007.6 0.0
16/09:00am 17.8 16.2 16.5 92 0.8 E 20 32 11 17 1009.0 1007.8 147.4
16/08:30am 17.5 15.8 16.2 92 0.8 E 20 37 11 20 1009.0 1007.8 146.8
16/08:00am 17.4 15.8 16.1 92 0.8 E 19 33 10 18 1009.2 1008.0 146.2
16/07:30am 17.2 15.0 15.9 92 0.8 E 22 37 12 20 1009.0 1007.8 145.8
16/07:00am 17.3 14.7 16.0 92 0.8 E 24 39 13 21 1009.2 1008.0 145.2
16/06:30am 17.2 14.3 16.1 93 0.7 E 26 44 14 24 1009.3 1008.1 142.6
16/06:00am 17.4 15.7 16.3 93 0.7 E 20 33 11 18 1009.4 1008.2 137.4
16/05:30am 17.4 15.3 16.3 93 0.7 E 22 37 12 20 1009.0 1007.8 130.8
16/05:00am 17.3 15.2 16.2 93 0.7 E 22 39 12 21 1009.3 1008.1 128.2
16/04:30am 17.4 15.3 16.3 93 0.7 E 22 37 12 20 1009.1 1007.9 122.8
16/04:00am 17.3 14.9 16.3 94 0.6 E 24 39 13 21 1009.2 1008.0 121.2
16/03:30am 17.3 15.8 16.3 94 0.6 ESE 19 33 10 18 1009.2 1008.0 118.4
16/03:00am 17.2 15.5 16.2 94 0.6 E 20 35 11 19 1010.0 1008.8 109.0
16/02:30am 17.3 15.2 16.3 94 0.6 E 22 33 12 18 1009.9 1008.7 100.4
16/02:00am 17.3 15.2 16.2 93 0.7 E 22 37 12 20 1010.3 1009.2 96.0
16/01:30am 17.3 14.4 16.2 93 0.7 ESE 26 41 14 22 1010.5 1009.4 89.6
16/01:00am 17.4 14.2 16.3 93 0.7 ESE 28 44 15 24 1011.1 1010.0 85.8
16/12:32am 17.4 14.1 16.1 92 0.8 E 28 50 15 27 1012.0 1010.8 82.2
16/12:30am 17.4 14.0 15.9 91 0.9 E 28 50 15 27 1012.1 1010.9 82.0
16/12:00am 17.6 13.9 16.1 91 0.9 ENE 30 57 16 31 1012.1 1010.9 78.2
 
Date/Time
WST
Temp
°C
App
Temp
°C
Dew
Point
°C
Rel
Hum
%
Delta-T
°C
Wind Press
QNH
hPa
Press
MSL
hPa
Rain since
9am
mm
Dir  Spd
km/h
Gust
km/h
Spd
kts
Gust
kts
15/11:30pm 17.3 13.3 16.2 93 0.7 ENE 32 56 17 30 1011.9 1010.7 71.4
15/11:00pm 16.8 13.0 15.7 93 0.7 E 30 52 16 28 1012.5 1011.3 64.0
15/10:30pm 16.4 12.4 15.3 93 0.6 E 30 52 16 28 1012.9 1011.7 56.4
15/10:16pm 16.5 12.9 15.2 92 0.8 E 28 50 15 27 1012.9 1011.7 50.8
15/10:00pm 16.8 13.3 15.5 92 0.8 E 28 44 15 24 1013.3 1012.1 43.0
15/09:38pm 17.3 14.0 16.0 92 0.8 E 28 48 15 26 1012.8 1011.6 36.4
15/09:30pm 17.4 14.5 16.1 92 0.8 E 26 50 14 27 1012.8 1011.6 35.0
15/09:12pm 17.7 14.5 16.4 92 0.8 E 28 52 15 28 1012.5 1011.3 32.2
15/09:00pm 18.0 15.3 16.7 92 0.8 E 26 46 14 25 1012.5 1011.3 30.4
15/08:55pm 17.9 14.8 16.6 92 0.8 E 28 46 15 25 1012.5 1011.3 29.6
15/08:30pm 18.1 15.8 16.6 91 0.9 E 24 43 13 23 1012.0 1010.8 27.0
15/08:12pm 18.3 15.3 16.8 91 0.9 E 28 46 15 25 1012.0 1010.8 25.6
15/08:00pm 18.5 16.0 17.0 91 0.9 E 26 43 14 23 1011.9 1010.7 24.6
15/07:30pm 18.8 16.4 17.3 91 0.9 E 26 46 14 25 1011.4 1010.3 22.4
15/07:00pm 19.0 16.3 17.5 91 0.9 E 28 48 15 26 1011.6 1010.5 21.0
15/06:41pm 18.9 16.2 17.6 92 0.8 E 28 50 15 27 1011.6 1010.5 20.2
15/06:30pm 19.0 17.1 17.7 92 0.8 E 24 41 13 22 1011.5 1010.4 19.8
15/06:00pm 19.1 17.6 17.8 92 0.8 E 22 37 12 20 1011.8 1010.6 19.0
15/05:30pm 19.1 17.6 17.8 92 0.8 E 22 35 12 19 1012.1 1010.9 17.6
15/05:00pm 19.1 17.2 17.6 91 0.9 E 24 39 13 21 1012.3 1011.1 15.0
15/04:30pm 19.4 18.6 17.9 91 0.9 E 19 37 10 20 1012.5 1011.3 11.4
15/04:00pm 19.4 18.6 17.9 91 0.9 E 19 30 10 16 1012.7 1011.5 10.4
15/03:30pm 19.2 18.3 17.7 91 0.9 E 19 35 10 19 1012.6 1011.4 9.6
15/03:00pm 18.8 17.1 17.1 90 1.0 E 22 35 12 19 1012.8 1011.6 8.6
15/02:30pm 19.0 17.3 17.3 90 1.0 E 22 35 12 19 1012.8 1011.6 7.6
15/02:00pm 19.0 16.2 17.3 90 1.0 E 28 54 15 29 1012.9 1011.7 5.8
15/01:30pm 19.1 16.6 17.2 89 1.2 E 26 48 14 26 1013.1 1011.9 4.4
15/01:06pm 18.9 16.0 17.0 89 1.2 E 28 52 15 28 1013.4 1012.3 4.2
15/01:00pm 18.9 16.7 17.0 89 1.2 E 24 41 13 22 1013.5 1012.4 4.0
15/12:30pm 18.6 15.8 16.4 87 1.3 E 26 52 14 28 1014.0 1012.9 2.6
15/12:00pm 19.2 17.0 16.8 86 1.5 E 24 44 13 24 1014.3 1013.2 2.0
15/11:30am 18.7 16.5 15.9 84 1.7 E 22 43 12 23 1014.8 1013.7 1.6
15/11:00am 18.9 16.3 16.0 83 1.7 ENE 24 43 13 23 1015.2 1014.1 1.0
15/10:30am 18.9 16.2 15.6 81 2.0 E 24 48 13 26 1015.9 1014.7 0.6
15/10:00am 19.1 16.4 15.6 80 2.1 E 24 44 13 24 1016.0 1014.8 0.4
15/09:30am 19.9 16.6 15.1 74 2.9 E 26 43 14 23 1016.6 1015.4 0.0
15/09:00am 20.1 16.3 14.7 71 3.2 ENE 28 48 15 26 1016.5 1015.3 0.0
15/08:45am 20.3 16.5 14.7 70 3.3 ENE 28 52 15 28 1016.6 1015.4 0.0
15/08:30am 21.4 18.7 13.6 61 4.6 ENE 20 39 11 21 1016.4 1015.2 0.0
15/08:00am 22.5 19.6 12.4 52 5.8 ENE 19 32 10 17 1016.0 1014.8 0.0
15/07:30am 22.8 19.7 12.1 51 6.1 E 20 39 11 21 1015.8 1014.6 0.0
15/07:00am 22.8 19.8 11.8 50 6.3 E 19 32 10 17 1015.5 1014.4 0.0
15/06:30am 22.8 19.8 11.8 50 6.3 E 19 32 10 17 1015.2 1014.1 0.0
15/06:00am 22.9 19.6 11.6 49 6.4 E 20 37 11 20 1014.8 1013.7 0.0
15/05:30am 22.8 19.8 11.8 50 6.3 E 19 32 10 17 1015.0 1013.9 0.0
15/05:00am 22.8 19.7 12.1 51 6.1 E 20 30 11 16 1015.2 1014.1 0.0
15/04:30am 22.8 20.3 12.4 52 6.0 ESE 17 32 9 17 1015.3 1014.2 0.0
15/04:00am 23.1 20.0 12.1 50 6.3 ESE 20 32 11 17 1014.8 1013.7 0.0
15/03:30am 23.7 20.5 12.0 48 6.7 ESE 20 32 11 17 1014.7 1013.6 0.0
15/03:00am 24.1 20.9 11.8 46 7.0 ESE 20 32 11 17 1014.4 1013.3 0.0
15/02:30am 24.5 21.7 11.5 44 7.4 ESE 17 28 9 15 1014.4 1013.3 0.0
15/02:00am 24.7 22.0 11.6 44 7.5 E 17 32 9 17 1014.5 1013.4 0.0
15/01:30am 24.8 21.6 11.4 43 7.7 ESE 19 30 10 16 1014.4 1013.3 0.0
15/01:00am 24.9 21.9 11.8 44 7.5 E 19 35 10 19 1014.5 1013.4 0.0
15/12:30am 24.8 21.8 12.4 46 7.2 ESE 20 32 11 17 1014.7 1013.6 0.0
15/12:00am 24.9 21.9 12.5 46 7.2 ESE 20 32 11 17 1014.8 1013.7 0.0
 
Date/Time
WST
Temp
°C
App
Temp
°C
Dew
Point
°C
Rel
Hum
%
Delta-T
°C
Wind Press
QNH
hPa
Press
MSL
hPa
Rain since
9am
mm
Dir  Spd
km/h
Gust
km/h
Spd
kts
Gust
kts
14/11:30pm 25.0 22.6 12.6 46 7.2 E 17 30 9 16 1015.2 1014.1 0.0
14/11:00pm 25.4 22.5 12.9 45 7.3 E 20 35 11 19 1015.0 1013.9 0.0
14/10:30pm 25.6 23.3 13.1 46 7.4 E 17 32 9 17 1015.5 1014.4 0.0
14/10:00pm 25.9 24.1 13.4 46 7.4 ESE 15 26 8 14 1015.9 1014.7 0.0
14/09:30pm 26.1 24.8 13.6 46 7.4 E 13 19 7 10 1015.4 1014.3 0.0
14/09:00pm 26.6 25.6 13.3 43 7.9 ESE 11 19 6 10 1015.5 1014.4 0.0
14/08:30pm 27.2 26.6 13.5 42 8.2 NE 9 17 5 9 1014.9 1013.8 0.0
14/08:00pm 27.6 27.1 12.8 40 8.8 ENE 7 19 4 10 1014.9 1013.8 0.0
14/07:30pm 28.2 27.5 12.1 37 9.4 NNE 7 17 4 9 1014.5 1013.4 0.0
14/07:00pm 28.9 27.7 11.5 34 10.1 N 9 13 5 7 1014.2 1013.1 0.0
14/06:30pm 29.6 28.5 10.7 31 10.9 NNE 7 15 4 8 1014.1 1013.0 0.0
14/06:00pm 30.4 28.1 10.4 29 11.5 NNE 13 24 7 13 1013.6 1012.5 0.0
14/05:30pm 31.3 27.6 9.5 26 12.4 NNE 19 32 10 17 1013.4 1012.3 0.0
14/05:09pm 32.8 29.2 8.3 22 13.8 NNE 17 46 9 25 1013.0 1011.8 0.0
14/05:00pm 34.1 31.4 5.6 17 15.5 NE 9 15 5 8 1012.7 1011.5 0.0
14/04:30pm 35.5 32.1 3.9 14 16.9 E 11 20 6 11 1012.6 1011.4 0.0
14/04:00pm 35.1 30.7 0.2 11 17.5 ENE 13 30 7 16 1012.6 1011.4 0.0
14/03:30pm 36.2 31.3 2.3 12 17.7 E 17 32 9 17 1012.4 1011.2 0.0
14/03:00pm 36.7 30.9 0.1 10 18.5 ENE 20 43 11 23 1012.9 1011.7 0.0
14/02:30pm 36.2 30.6 1.1 11 18.0 E 20 37 11 20 1013.0 1011.8 0.0
14/02:00pm 37.3 32.0 1.9 11 18.5 E 19 33 10 18 1013.1 1011.9 0.0
14/01:30pm 36.8 31.1 2.8 12 17.9 ENE 22 35 12 19 1013.5 1012.4 0.0
14/01:00pm 36.7 31.4 4.9 14 17.3 ESE 22 48 12 26 1013.6 1012.5 0.0
14/12:30pm 35.5 30.7 4.9 15 16.6 E 19 33 10 18 1014.1 1013.0 0.0
14/12:00pm 34.7 30.0 6.1 17 15.7 ENE 20 33 11 18 1014.5 1013.4 0.0
14/11:32am 34.4 27.9 6.7 18 15.3 E 30 48 16 26 1014.7 1013.6 0.0
14/11:30am 34.2 28.1 6.5 18 15.3 E 28 44 15 24 1014.7 1013.6 0.0
14/11:24am 33.7 27.3 5.3 17 15.3 E 28 56 15 30 1014.9 1013.8 0.0
14/11:00am 33.1 28.4 7.9 21 14.1 E 22 41 12 22 1015.1 1014.0 0.0
14/10:30am 31.0 27.7 10.9 29 11.7 ESE 19 30 10 16 1015.3 1014.2 0.0
14/10:00am 29.1 25.5 10.7 32 10.6 E 20 39 11 21 1015.5 1014.4 0.0
14/09:30am 28.1 25.4 11.6 36 9.6 E 17 32 9 17 1015.9 1014.7 0.0
14/09:00am 26.4 23.5 12.8 43 8.0 E 20 37 11 20 1016.1 1014.9 0.0
14/08:30am 24.5 21.5 12.5 47 7.0 E 20 37 11 20 1016.2 1015.0 0.0
14/08:00am 22.9 20.0 12.8 53 5.8 E 20 35 11 19 1016.4 1015.2 0.0
14/07:30am 21.2 18.3 12.9 59 4.8 ESE 20 35 11 19 1016.2 1015.0 0.0
14/07:00am 19.8 16.8 12.6 63 4.1 ESE 20 33 11 18 1016.3 1015.1 0.0
14/06:30am 19.1 15.7 12.4 65 3.8 ESE 22 33 12 18 1016.4 1015.2 0.0
14/06:00am 18.6 15.5 12.1 66 3.6 ESE 20 32 11 17 1016.2 1015.0 0.0
14/05:30am 18.7 14.8 12.0 65 3.8 ESE 24 35 13 19 1015.9 1014.7 0.0
14/05:00am 19.0 15.8 11.8 63 4.0 ESE 20 30 11 16 1015.7 1014.5 0.0
14/04:30am 19.5 16.5 11.8 61 4.3 ESE 19 28 10 15 1015.4 1014.3 0.0
14/04:00am 19.9 16.8 11.7 59 4.6 ESE 19 30 10 16 1015.2 1014.1 0.0
14/03:30am 20.3 17.0 11.5 57 4.9 ESE 20 33 11 18 1015.1 1014.0 0.0
14/03:00am 20.9 17.2 11.5 55 5.3 ESE 22 37 12 20 1014.9 1013.8 0.0
14/02:30am 21.5 17.8 11.5 53 5.6 ESE 22 35 12 19 1014.7 1013.6 0.0
14/02:00am 22.0 18.4 11.7 52 5.8 ESE 22 37 12 20 1014.6 1013.5 0.0
14/01:30am 22.6 19.0 11.7 50 6.2 ESE 22 35 12 19 1014.7 1013.6 0.0

Other Formats:

Comma delimited format used in spreadsheet applications
http://www.bom.gov.au/fwo/IDW60801/IDW60801.94620.axf

JavaScript Object Notation format (JSON) in row-major order
http://www.bom.gov.au/fwo/IDW60801/IDW60801.94620.json